createdAt,value
2018-07-02T00:01:55.432Z,16.29
2018-07-02T00:04:23.747Z,16.32
2018-07-02T00:07:03.981Z,16.35
2018-07-02T00:09:31.735Z,16.40
2018-07-02T00:12:00.637Z,16.44
2018-07-02T00:14:28.952Z,16.46
2018-07-02T00:16:57.280Z,16.49
2018-07-02T00:19:25.652Z,16.50
2018-07-02T00:21:53.414Z,16.51
2018-07-02T00:24:22.314Z,16.52
2018-07-02T00:26:50.051Z,16.51
2018-07-02T00:29:20.416Z,16.49
2018-07-02T00:31:48.864Z,16.50
2018-07-02T00:34:17.114Z,16.51
2018-07-02T00:36:45.436Z,16.50
2018-07-02T00:39:13.800Z,16.50
2018-07-02T00:41:41.504Z,16.50
2018-07-02T00:44:10.415Z,16.48
2018-07-02T00:46:38.152Z,16.46
2018-07-02T00:49:06.472Z,16.47
2018-07-02T00:51:35.399Z,16.47
2018-07-02T00:54:03.199Z,16.47
2018-07-02T00:56:31.514Z,16.47
2018-07-02T00:58:59.904Z,16.46
2018-07-02T01:01:28.795Z,16.50
2018-07-02T01:03:56.572Z,16.54
2018-07-02T01:06:25.473Z,16.56
2018-07-02T01:08:53.827Z,16.55
2018-07-02T01:11:22.221Z,16.51
2018-07-02T01:13:50.563Z,16.51
2018-07-02T01:16:18.880Z,16.50
2018-07-02T01:18:46.669Z,16.51
2018-07-02T01:21:15.594Z,16.54
2018-07-02T01:23:43.959Z,16.57
2018-07-02T01:26:12.288Z,16.59
2018-07-02T01:28:41.139Z,16.58
2018-07-02T01:31:08.876Z,16.60
2018-07-02T01:33:37.199Z,16.59
2018-07-02T01:36:06.096Z,16.61
2018-07-02T01:38:34.405Z,16.64
2018-07-02T01:41:02.138Z,16.65
2018-07-02T01:43:30.484Z,16.66
2018-07-02T01:45:58.800Z,16.65
2018-07-02T01:48:27.785Z,16.63
2018-07-02T01:50:56.106Z,16.62
2018-07-02T01:53:24.496Z,16.62
2018-07-02T01:55:52.816Z,16.62
2018-07-02T01:58:20.594Z,16.62
2018-07-02T02:00:49.491Z,16.61
2018-07-02T02:03:17.227Z,16.55
2018-07-02T02:05:46.126Z,16.42
2018-07-02T02:08:13.869Z,16.30
2018-07-02T02:10:42.762Z,16.18
2018-07-02T02:13:11.087Z,16.09
2018-07-02T02:15:39.407Z,15.99
2018-07-02T02:18:07.143Z,15.93
2018-07-02T02:20:36.046Z,15.90
2018-07-02T02:23:04.360Z,15.88
2018-07-02T02:25:32.106Z,15.84
2018-07-02T02:28:01.014Z,15.81
2018-07-02T02:30:28.741Z,15.78
2018-07-02T02:32:57.640Z,15.77
2018-07-02T02:35:26.306Z,15.74
2018-07-02T02:37:54.664Z,15.74
2018-07-02T02:40:22.406Z,15.73
2018-07-02T02:42:50.719Z,15.72
2018-07-02T02:45:19.626Z,15.71
2018-07-02T02:47:47.361Z,15.67
2018-07-02T02:50:15.721Z,15.62
2018-07-02T02:52:44.004Z,15.61
2018-07-02T02:55:12.914Z,15.62
2018-07-02T02:57:40.652Z,15.59
2018-07-02T03:00:09.548Z,15.54
2018-07-02T03:02:37.864Z,15.49
2018-07-02T03:05:06.177Z,15.45
2018-07-02T03:07:33.919Z,15.47
2018-07-02T03:10:02.813Z,15.49
2018-07-02T03:12:31.127Z,15.48
2018-07-02T03:14:58.865Z,15.49
2018-07-02T03:17:27.764Z,15.52
2018-07-02T03:19:56.090Z,15.53
2018-07-02T03:22:24.423Z,15.54
2018-07-02T03:24:52.746Z,15.55
2018-07-02T03:27:21.075Z,15.55
2018-07-02T03:29:49.400Z,15.52
2018-07-02T03:32:17.146Z,15.52
2018-07-02T03:34:45.465Z,15.52
2018-07-02T03:37:14.456Z,15.55
2018-07-02T03:39:42.771Z,15.58
2018-07-02T03:42:10.510Z,15.56
2018-07-02T03:44:39.403Z,15.53
2018-07-02T03:47:07.149Z,15.53
2018-07-02T03:49:36.050Z,15.56
2018-07-02T03:52:03.818Z,15.53
2018-07-02T03:54:32.704Z,15.49
2018-07-02T03:57:00.487Z,15.49
2018-07-02T03:59:29.393Z,15.52
2018-07-02T04:01:57.711Z,15.54
2018-07-02T04:04:25.484Z,15.61
2018-07-02T04:06:54.381Z,15.66
2018-07-02T04:09:22.737Z,15.68
2018-07-02T04:11:51.030Z,15.70
2018-07-02T04:14:18.772Z,15.73
2018-07-02T04:16:47.100Z,15.75
2018-07-02T04:19:15.422Z,15.79
2018-07-02T04:21:43.749Z,15.83
2018-07-02T04:24:12.662Z,15.89
2018-07-02T04:26:40.397Z,15.93
2018-07-02T04:29:09.235Z,15.93
2018-07-02T04:31:37.635Z,15.93
2018-07-02T04:34:05.957Z,15.91
2018-07-02T04:36:34.310Z,15.94
2018-07-02T04:39:02.685Z,16.00
2018-07-02T04:41:31.016Z,16.04
2018-07-02T04:43:59.340Z,16.05
2018-07-02T04:46:27.077Z,16.12
2018-07-02T04:48:55.995Z,16.17
2018-07-02T04:51:30.816Z,16.19
2018-07-02T04:53:59.160Z,16.26
2018-07-02T04:56:26.903Z,16.34
2018-07-02T04:58:55.224Z,16.37
2018-07-02T05:01:23.541Z,16.41
2018-07-02T05:03:51.869Z,16.47
2018-07-02T05:06:20.189Z,16.52
2018-07-02T05:08:48.513Z,16.58
2018-07-02T05:11:17.441Z,16.64
2018-07-02T05:13:45.757Z,16.65
2018-07-02T05:16:14.067Z,16.66
2018-07-02T05:18:42.319Z,16.68
2018-07-02T05:21:10.137Z,16.73
2018-07-02T05:23:39.029Z,16.79
2018-07-02T05:26:06.759Z,16.86
2018-07-02T05:28:35.654Z,16.93
2018-07-02T05:31:03.400Z,16.96
2018-07-02T05:33:31.719Z,16.97
2018-07-02T05:36:00.625Z,17.02
2018-07-02T05:38:28.933Z,17.06
2018-07-02T05:40:57.312Z,17.11
2018-07-02T05:43:25.625Z,17.12
2018-07-02T05:45:53.935Z,17.15
2018-07-02T05:48:21.691Z,17.21
2018-07-02T05:50:50.009Z,17.20
2018-07-02T05:53:18.909Z,17.24
2018-07-02T05:55:47.235Z,17.31
2018-07-02T05:58:15.569Z,17.36
2018-07-02T06:00:43.308Z,17.39
2018-07-02T06:03:12.538Z,17.41
2018-07-02T06:05:40.854Z,17.40
2018-07-02T06:08:09.247Z,17.40
2018-07-02T06:10:36.906Z,17.42
2018-07-02T06:13:05.812Z,17.42
2018-07-02T06:15:34.126Z,17.46
2018-07-02T06:18:02.443Z,17.40
2018-07-02T06:20:30.189Z,17.35
2018-07-02T06:22:59.091Z,17.37
2018-07-02T06:25:27.398Z,17.38
2018-07-02T06:27:55.720Z,17.41
2018-07-02T06:30:24.053Z,17.42
2018-07-02T06:32:51.767Z,17.41
2018-07-02T06:35:20.684Z,17.44
2018-07-02T06:37:49.008Z,17.52
2018-07-02T06:40:17.326Z,17.58
2018-07-02T06:42:45.112Z,17.63
2018-07-02T06:45:22.811Z,17.62
2018-07-02T06:47:50.580Z,17.61
2018-07-02T06:50:18.896Z,17.58
2018-07-02T06:52:47.829Z,17.58
2018-07-02T06:55:15.570Z,17.57
2018-07-02T06:57:43.901Z,17.60
2018-07-02T07:00:12.802Z,17.68
2018-07-02T07:02:40.554Z,17.71
2018-07-02T07:05:08.869Z,17.73
2018-07-02T07:07:37.176Z,17.74
2018-07-02T07:10:05.488Z,17.70
2018-07-02T07:12:33.798Z,17.74
2018-07-02T07:15:02.698Z,17.72
2018-07-02T07:17:31.016Z,17.73
2018-07-02T07:19:58.750Z,17.78
2018-07-02T07:22:27.068Z,17.77
2018-07-02T07:24:55.967Z,17.74
2018-07-02T07:27:24.298Z,17.77
2018-07-02T07:29:52.603Z,17.85
2018-07-02T07:32:20.917Z,17.95
2018-07-02T07:34:49.225Z,17.98
2018-07-02T07:37:17.575Z,18.06
2018-07-02T07:39:45.860Z,18.17
2018-07-02T07:42:14.186Z,18.14
2018-07-02T07:44:42.548Z,18.06
2018-07-02T07:47:10.278Z,18.04
2018-07-02T07:49:39.168Z,18.13
2018-07-02T07:52:07.501Z,18.18
2018-07-02T07:54:35.834Z,18.25
2018-07-02T07:57:05.071Z,18.28
2018-07-02T08:00:06.981Z,18.23
2018-07-02T08:02:16.003Z,18.20
2018-07-02T08:04:44.312Z,18.21
2018-07-02T08:07:12.429Z,18.21
2018-07-02T08:09:40.364Z,18.12
2018-07-02T08:12:08.686Z,18.14
2018-07-02T08:14:37.891Z,18.23
2018-07-02T08:17:06.205Z,18.36
2018-07-02T08:19:34.557Z,18.48
2018-07-02T08:22:02.301Z,18.52
2018-07-02T08:24:31.123Z,18.54
2018-07-02T08:26:58.925Z,18.56
2018-07-02T08:29:27.264Z,18.59
2018-07-02T08:31:56.140Z,18.58
2018-07-02T08:34:24.461Z,18.72
2018-07-02T08:36:52.835Z,18.68
2018-07-02T08:39:21.157Z,18.72
2018-07-02T08:41:52.888Z,18.81
2018-07-02T08:44:21.214Z,18.88
2018-07-02T08:46:50.008Z,18.91
2018-07-02T08:49:17.704Z,18.83
2018-07-02T08:51:46.604Z,18.72
2018-07-02T08:54:14.353Z,18.75
2018-07-02T08:56:43.253Z,18.80
2018-07-02T08:59:11.573Z,18.83
2018-07-02T09:01:39.888Z,18.79
2018-07-02T09:04:07.630Z,18.83
2018-07-02T09:06:36.526Z,18.90
2018-07-02T09:09:04.852Z,18.84
2018-07-02T09:11:34.578Z,18.88
2018-07-02T09:14:02.041Z,18.94
2018-07-02T09:16:30.937Z,18.88
2018-07-02T09:18:59.308Z,18.93
2018-07-02T09:21:27.203Z,18.92
2018-07-02T09:23:55.976Z,18.96
2018-07-02T09:26:23.881Z,18.96
2018-07-02T09:28:52.038Z,18.83
2018-07-02T09:31:40.163Z,18.78
2018-07-02T09:34:08.481Z,18.74
2018-07-02T09:36:37.185Z,18.75
2018-07-02T09:39:05.570Z,18.76
2018-07-02T09:41:33.312Z,18.86
2018-07-02T09:44:02.236Z,18.99
2018-07-02T09:46:30.547Z,19.05
2018-07-02T09:48:58.910Z,19.10
2018-07-02T09:51:26.646Z,19.13
2018-07-02T09:53:54.973Z,19.28
2018-07-02T09:56:23.306Z,19.49
2018-07-02T09:58:52.219Z,19.61
2018-07-02T10:01:20.541Z,19.64
2018-07-02T10:03:48.867Z,19.72
2018-07-02T10:06:17.251Z,19.68
2018-07-02T10:08:44.917Z,19.73
2018-07-02T10:11:13.249Z,19.85
2018-07-02T10:13:41.569Z,20.05
2018-07-02T10:16:09.878Z,20.14
2018-07-02T10:18:38.192Z,20.13
2018-07-02T10:21:07.091Z,20.17
2018-07-02T10:23:37.335Z,20.17
2018-07-02T10:26:04.383Z,20.08
2018-07-02T10:28:32.678Z,20.09
2018-07-02T10:31:01.041Z,20.14
2018-07-02T10:33:29.347Z,20.17
2018-07-02T10:35:57.918Z,20.23
2018-07-02T10:38:26.237Z,20.28
2018-07-02T10:40:53.979Z,20.33
2018-07-02T10:43:22.880Z,20.36
2018-07-02T10:45:50.626Z,20.28
2018-07-02T10:48:19.831Z,20.31
2018-07-02T10:50:47.596Z,20.43
2018-07-02T10:53:16.487Z,20.56
2018-07-02T10:55:44.375Z,20.84
2018-07-02T10:58:12.661Z,20.83
2018-07-02T11:00:41.562Z,20.87
2018-07-02T11:03:09.888Z,21.01
2018-07-02T11:05:37.640Z,21.03
2018-07-02T11:08:05.952Z,20.85
2018-07-02T11:10:34.873Z,20.80
2018-07-02T11:13:04.004Z,20.68
2018-07-02T11:15:31.545Z,20.64
2018-07-02T11:17:59.876Z,20.63
2018-07-02T11:20:28.782Z,20.72
2018-07-02T11:22:57.089Z,20.70
2018-07-02T11:25:25.421Z,20.69
2018-07-02T11:27:53.168Z,20.68
2018-07-02T11:30:21.485Z,20.71
2018-07-02T11:32:50.387Z,20.88
2018-07-02T11:35:18.135Z,21.02
2018-07-02T11:37:47.036Z,21.04
2018-07-02T11:40:14.794Z,21.01
2018-07-02T11:42:43.705Z,21.05
2018-07-02T11:45:12.027Z,21.02
2018-07-02T11:47:40.354Z,21.10
2018-07-02T11:50:08.679Z,21.12
2018-07-02T11:52:37.072Z,21.25
2018-07-02T11:55:04.815Z,21.57
2018-07-02T11:57:33.716Z,21.72
2018-07-02T12:00:02.167Z,21.74
2018-07-02T12:02:29.900Z,21.89
2018-07-02T12:04:58.801Z,21.81
2018-07-02T12:07:27.125Z,21.84
2018-07-02T12:09:55.682Z,22.16
2018-07-02T12:12:24.576Z,22.55
2018-07-02T12:14:52.910Z,22.95
2018-07-02T12:17:21.219Z,23.08
2018-07-02T12:19:48.959Z,22.99
2018-07-02T12:22:17.863Z,22.79
2018-07-02T12:24:46.209Z,22.96
2018-07-02T12:27:15.111Z,23.21
2018-07-02T12:29:43.508Z,23.30
2018-07-02T12:32:11.981Z,23.06
2018-07-02T12:34:40.361Z,22.89
2018-07-02T12:37:08.091Z,22.85
2018-07-02T12:39:37.107Z,22.83
2018-07-02T12:42:05.416Z,22.94
2018-07-02T12:44:33.741Z,23.20
2018-07-02T12:47:02.071Z,23.26
2018-07-02T12:49:30.393Z,23.23
2018-07-02T12:51:58.905Z,23.05
2018-07-02T12:54:27.320Z,22.98
2018-07-02T12:57:04.691Z,22.87
2018-07-02T12:59:29.282Z,22.70
2018-07-02T13:01:57.018Z,22.57
2018-07-02T13:04:25.920Z,22.48
2018-07-02T13:06:54.249Z,22.43
2018-07-02T13:09:22.568Z,22.26
2018-07-02T13:11:51.219Z,22.08
2018-07-02T13:16:49.890Z,22.39
2018-07-02T13:19:18.800Z,22.36
2018-07-02T13:21:46.544Z,22.33
2018-07-02T13:24:14.866Z,22.15
2018-07-02T13:26:43.781Z,21.96
2018-07-02T13:29:11.524Z,21.79
2018-07-02T13:31:54.395Z,21.67
2018-07-02T13:34:23.339Z,21.73
2018-07-02T13:36:51.656Z,21.72
2018-07-02T13:39:19.987Z,21.67
2018-07-02T13:41:48.327Z,21.71
2018-07-02T13:44:16.643Z,21.89
2018-07-02T13:46:44.983Z,22.08
2018-07-02T13:49:13.291Z,22.39
2018-07-02T13:51:41.031Z,22.56
2018-07-02T13:54:09.927Z,22.72
2018-07-02T13:56:38.304Z,22.68
2018-07-02T13:59:06.618Z,22.46
2018-07-02T14:01:35.260Z,22.28
2018-07-02T14:04:03.579Z,22.35
2018-07-02T14:06:31.896Z,22.58
2018-07-02T14:09:00.235Z,22.93
2018-07-02T14:11:27.968Z,23.57
2018-07-02T14:13:57.749Z,24.25
2018-07-02T14:16:26.102Z,24.40
2018-07-02T14:18:54.429Z,24.33
2018-07-02T14:21:22.746Z,24.18
2018-07-02T14:23:51.070Z,24.02
2018-07-02T14:26:18.822Z,24.33
2018-07-02T14:28:47.187Z,24.70
2018-07-02T14:31:15.508Z,24.98
2018-07-02T14:33:44.504Z,25.18
2018-07-02T14:36:12.821Z,24.86
2018-07-02T14:38:40.573Z,24.66
2018-07-02T14:41:08.890Z,24.64
2018-07-02T14:43:37.791Z,24.62
2018-07-02T14:46:05.568Z,24.44
2018-07-02T14:48:33.913Z,24.09
2018-07-02T14:51:02.855Z,23.85
2018-07-02T14:53:30.568Z,23.65
2018-07-02T14:55:59.477Z,23.38
2018-07-02T14:58:28.692Z,23.08
2018-07-02T15:00:57.182Z,22.89
2018-07-02T15:03:25.953Z,22.59
2018-07-02T15:05:54.286Z,22.24
2018-07-02T15:08:22.022Z,22.09
2018-07-02T15:10:50.926Z,21.98
2018-07-02T15:13:19.254Z,21.87
2018-07-02T15:15:47.005Z,21.83
2018-07-02T15:18:15.923Z,21.75
2018-07-02T15:20:43.647Z,21.48
2018-07-02T15:23:12.541Z,21.34
2018-07-02T15:25:40.858Z,21.17
2018-07-02T15:28:09.170Z,21.20
2018-07-02T15:30:37.511Z,21.09
2018-07-02T15:33:05.836Z,20.99
2018-07-02T15:35:34.150Z,20.87
2018-07-02T15:38:02.468Z,20.84
2018-07-02T15:40:30.785Z,20.84
2018-07-02T15:42:58.530Z,20.90
2018-07-02T15:45:27.433Z,20.95
2018-07-02T15:47:55.751Z,20.90
2018-07-02T15:50:23.506Z,20.86
2018-07-02T15:52:51.950Z,20.92
2018-07-02T15:55:20.737Z,21.10
2018-07-02T16:00:46.857Z,21.41
2018-07-02T16:03:15.755Z,21.26
2018-07-02T16:05:44.286Z,21.15
2018-07-02T16:08:11.824Z,20.98
2018-07-02T16:10:40.732Z,20.78
2018-07-02T16:13:09.341Z,20.67
2018-07-02T16:15:37.661Z,20.44
2018-07-02T16:18:05.994Z,20.28
2018-07-02T16:20:34.323Z,20.16
2018-07-02T16:23:02.628Z,20.12
2018-07-02T16:25:31.865Z,20.10
2018-07-02T16:28:01.239Z,20.09
2018-07-02T16:30:29.441Z,19.99
2018-07-02T16:32:58.316Z,19.98
2018-07-02T16:35:26.066Z,19.90
2018-07-02T16:37:58.424Z,19.79
2018-07-02T16:40:27.157Z,19.77
2018-07-02T16:42:54.892Z,19.68
2018-07-02T16:45:23.784Z,19.69
2018-07-02T16:47:52.396Z,19.60
2018-07-02T16:50:20.652Z,19.61
2018-07-02T16:52:50.231Z,19.65
2018-07-02T16:55:18.554Z,19.66
2018-07-02T16:57:46.871Z,19.57
2018-07-02T17:00:15.218Z,19.52
2018-07-02T17:02:43.673Z,19.49
2018-07-02T17:05:12.005Z,19.44
2018-07-02T17:07:40.329Z,19.40
2018-07-02T17:10:08.662Z,19.36
2018-07-02T17:12:37.010Z,19.33
2018-07-02T17:15:05.320Z,19.27
2018-07-02T17:17:33.078Z,19.29
2018-07-02T17:20:01.405Z,19.31
2018-07-02T17:22:30.372Z,19.32
2018-07-02T17:24:59.273Z,19.33
2018-07-02T17:27:28.134Z,19.33
2018-07-02T17:29:57.048Z,19.36
2018-07-02T17:32:24.802Z,19.42
2018-07-02T17:34:53.707Z,19.36
2018-07-02T17:37:22.027Z,19.25
2018-07-02T17:39:50.367Z,19.24
2018-07-02T17:42:18.684Z,19.24
2018-07-02T17:44:47.100Z,19.25
2018-07-02T17:47:15.436Z,19.19
2018-07-02T17:49:43.746Z,19.22
2018-07-02T17:52:11.488Z,19.19
2018-07-02T17:54:41.119Z,19.10
2018-07-02T17:57:08.855Z,19.05
2018-07-02T17:59:37.329Z,19.04
2018-07-02T18:02:06.230Z,19.07
2018-07-02T18:04:34.511Z,19.05
2018-07-02T18:07:03.164Z,19.01
2018-07-02T18:09:31.489Z,19.00
2018-07-02T18:12:00.046Z,18.97
2018-07-02T18:14:28.237Z,18.90
2018-07-02T18:16:56.789Z,18.87
2018-07-02T18:22:02.105Z,18.80
2018-07-02T18:24:31.014Z,18.81
2018-07-02T18:26:58.775Z,18.83
2018-07-02T18:29:27.688Z,18.82
2018-07-02T18:31:56.013Z,18.80
2018-07-02T18:34:25.976Z,18.75
2018-07-02T18:37:02.148Z,18.76
2018-07-02T18:39:30.247Z,18.70
2018-07-02T18:41:58.573Z,18.64
2018-07-02T18:44:26.394Z,18.57
2018-07-02T18:46:55.228Z,18.58
2018-07-02T18:49:23.891Z,18.54
2018-07-02T18:51:52.484Z,18.54
2018-07-02T18:54:20.800Z,18.54
2018-07-02T18:56:49.139Z,18.57
2018-07-02T18:59:17.460Z,18.55
2018-07-02T19:01:45.793Z,18.49
2018-07-02T19:04:14.120Z,18.42
2018-07-02T19:06:42.716Z,18.29
2018-07-02T19:09:10.811Z,18.26
2018-07-02T19:11:39.178Z,18.23
2018-07-02T19:14:07.732Z,18.16
2018-07-02T19:16:36.569Z,18.13
2018-07-02T19:19:04.895Z,18.11
2018-07-02T19:21:32.649Z,18.05
2018-07-02T19:24:01.557Z,17.99
2018-07-02T19:26:29.301Z,17.97
2018-07-02T19:28:58.208Z,17.90
2018-07-02T19:31:25.956Z,17.80
2018-07-02T19:33:54.284Z,17.74
2018-07-02T19:36:23.186Z,17.72
2018-07-02T19:38:51.567Z,17.74
2018-07-02T19:41:19.340Z,17.73
2018-07-02T19:43:48.260Z,17.70
2018-07-02T19:46:16.675Z,17.66
2018-07-02T19:48:45.001Z,17.55
2018-07-02T19:51:13.332Z,17.51
2018-07-02T19:53:41.977Z,17.52
2018-07-02T19:56:10.304Z,17.52
2018-07-02T19:58:38.625Z,17.51
2018-07-02T20:01:07.294Z,17.51
2018-07-02T20:03:36.027Z,17.49
2018-07-02T20:06:04.339Z,17.43
2018-07-02T20:08:32.739Z,17.42
2018-07-02T20:11:02.451Z,17.46
2018-07-02T20:13:31.128Z,17.45
2018-07-02T20:15:59.420Z,17.41
2018-07-02T20:18:28.096Z,17.39
2018-07-02T20:20:56.373Z,17.38
2018-07-02T20:23:24.710Z,17.32
2018-07-02T20:25:53.045Z,17.29
2018-07-02T20:28:21.369Z,17.24
2018-07-02T20:30:49.693Z,17.22
2018-07-02T20:33:18.192Z,17.24
2018-07-02T20:35:46.524Z,17.22
2018-07-02T20:38:25.358Z,17.16
2018-07-02T20:40:53.734Z,17.17
2018-07-02T20:43:24.701Z,17.22
2018-07-02T20:45:51.794Z,17.19
2018-07-02T20:48:20.047Z,17.16
2018-07-02T20:50:48.382Z,17.10
2018-07-02T20:53:16.746Z,17.11
2018-07-02T20:55:45.138Z,17.12
2018-07-02T20:58:13.425Z,17.13
2018-07-02T21:00:41.217Z,17.14
2018-07-02T21:03:10.225Z,17.20
2018-07-02T21:05:38.574Z,17.18
2018-07-02T21:08:19.827Z,17.20
2018-07-02T21:10:43.517Z,17.18
2018-07-02T21:13:20.535Z,17.19
2018-07-02T21:15:48.374Z,17.22
2018-07-02T21:18:16.629Z,17.26
2018-07-02T21:20:56.725Z,17.31
2018-07-02T21:26:19.833Z,17.27
2018-07-02T21:28:48.780Z,17.20
2018-07-02T21:31:17.104Z,17.13
2018-07-02T21:33:45.430Z,17.11
2018-07-02T21:36:34.343Z,17.14
2018-07-02T21:39:03.481Z,17.13
2018-07-02T21:41:32.410Z,17.14
2018-07-02T21:44:00.735Z,17.13
2018-07-02T21:46:28.467Z,17.15
2018-07-02T21:48:56.782Z,17.18
2018-07-02T21:51:25.686Z,17.18
2018-07-02T21:53:54.390Z,17.18
2018-07-02T21:56:22.133Z,17.22
2018-07-02T21:58:50.486Z,17.22
2018-07-02T22:01:19.382Z,17.22
2018-07-02T22:03:47.704Z,17.24
2018-07-02T22:06:16.034Z,17.22
2018-07-02T22:08:44.362Z,17.21
2018-07-02T22:11:12.726Z,17.14
2018-07-02T22:13:40.466Z,17.09
2018-07-02T22:16:08.778Z,17.04
2018-07-02T22:18:37.676Z,17.09
2018-07-02T22:21:05.992Z,17.15
2018-07-02T22:23:34.307Z,17.18
2018-07-02T22:26:02.634Z,17.21
2018-07-02T22:28:31.235Z,17.21
2018-07-02T22:30:59.535Z,17.22
2018-07-02T22:33:27.874Z,17.19
2018-07-02T22:35:56.201Z,17.13
2018-07-02T22:38:24.566Z,17.11
2018-07-02T22:40:52.315Z,17.10
2018-07-02T22:43:21.275Z,17.10
2018-07-02T22:45:49.578Z,17.13
2018-07-02T22:48:17.877Z,17.14
2018-07-02T22:50:46.257Z,17.11
2018-07-02T22:53:14.011Z,17.08
2018-07-02T22:55:42.331Z,17.07
2018-07-02T22:58:11.321Z,17.04
2018-07-02T23:00:39.685Z,17.04
2018-07-02T23:03:08.008Z,17.03
2018-07-02T23:05:36.338Z,17.02
2018-07-02T23:08:04.078Z,17.05
2018-07-02T23:10:32.401Z,17.07
2018-07-02T23:13:01.641Z,17.01
2018-07-02T23:15:29.965Z,16.95
2018-07-02T23:17:58.870Z,16.95
2018-07-02T23:20:26.607Z,16.97
2018-07-02T23:22:55.797Z,16.98
2018-07-02T23:25:24.114Z,16.99
2018-07-02T23:27:51.846Z,16.93
2018-07-02T23:30:20.739Z,16.85
2018-07-02T23:32:49.400Z,16.80
2018-07-02T23:35:18.139Z,16.79
2018-07-02T23:37:46.427Z,16.82
2018-07-02T23:40:14.738Z,16.82
2018-07-02T23:42:42.483Z,16.88
2018-07-02T23:45:10.803Z,16.94
2018-07-02T23:47:39.118Z,16.94
2018-07-02T23:50:08.013Z,16.90
2018-07-02T23:52:36.340Z,16.86
2018-07-02T23:55:04.093Z,16.86
2018-07-02T23:57:32.993Z,16.89
